Station: Cape Wessel  

  Atmospheric Gas Attenuation - ITU Rec 676-11   ----------------- dB/100km -----------------
Date Time Temp RH % AH g/m3 Dew Point Wind Direction Speed kph Gust kph Barometer mB Rainfall Since 9am 24GHz 47GHz 76GHz 122GHz 134GHz 241GHz
07/05 17:40 28.1 77 21.06 23.7 33 39 1009.9 0 45.0 42.3 83.5 220.9 246.3 856.1
07/05 17:30 28.2 76 20.9 23.6 33 43 1009.8 0 44.7 41.9 82.6 218.6 243.5 846.4
07/05 17:20 28.4 75 20.85 23.5 37 41 1009.8 0 44.5 41.7 82.1 217.4 242.1 841.4
07/05 17:10 28.7 75 21.2 23.8 28 35 1009.7 0 45.2 42.2 83.4 220.9 246.5 856.8
07/05 17:00 28.9 73 20.86 23.6 33 44 1009.6 0 44.5 41.5 81.6 216.1 240.6 836.3
07/05 16:50 29.5 69 20.37 23.4 33 39 1009.5 0 43.4 40.3 78.7 208.3 231.3 804.1
07/05 16:40 29.4 69 20.26 23.1 37 43 1009.4 0 43.2 40.1 78.3 207.3 230.0 799.4
07/05 16:30 29.6 71 21.07 23.8 32 43 1009.4 0 44.9 41.5 81.8 216.6 241.5 839.6
07/05 16:20 29 70 20.11 23 33 37 1009.3 0 42.9 40.0 78.0 206.5 228.9 795.7
07/05 16:10 30.1 71 21.65 24.3 32 35 1009.4 0 46.0 42.4 84.0 222.4 248.7 864.7
07/05 16:00 29.6 71 21.07 23.8 33 43 1009.3 0 44.9 41.5 81.8 216.6 241.5 839.5
07/05 15:50 30.5 70 21.81 24.4 33 39 1009.4 0 46.3 42.5 84.3 223.2 249.8 868.6
07/05 15:40 30.2 71 21.77 24.4 35 39 1009.4 0 46.3 42.5 84.4 223.6 250.2 869.9
07/05 15:30 30.3 69 21.27 24 32 39 1009.4 0 45.2 41.6 82.0 217.1 242.3 842.4
07/05 15:20 30.9 68 21.65 24.3 37 41 1009.4 0 45.9 42.0 83.1 220.1 246.1 855.6
07/05 15:10 30.7 71 22.36 24.8 28 33 1009.4 0 47.4 43.4 86.6 229.5 257.6 895.5
07/05 15:00 31 68 21.77 24.6 33 41 1009.4 0 46.2 42.1 83.6 221.3 247.5 860.8
07/05 14:50 30.8 70 22.17 24.7 33 39 1009.4 0 47.0 43.0 85.6 226.8 254.3 884.2
07/05 14:40 30.5 69 21.5 24.2 32 43 1009.4 0 45.7 41.9 82.8 219.4 245.1 852.2
07/05 14:30 31 68 21.77 24.4 33 41 1009.4 0 46.2 42.1 83.6 221.3 247.5 860.8
07/05 14:20 30.9 68 21.65 24.3 33 37 1009.6 0 45.9 42.0 83.1 220.1 246.1 855.7
07/05 14:10 31.1 68 21.88 24.7 32 35 1009.8 0 46.4 42.3 84.0 222.4 248.9 865.6
07/05 14:00 31.5 69 22.69 25.1 32 37 1009.9 0 48.0 43.6 87.3 231.3 259.9 903.9
07/05 13:50 31.2 68 22 24.6 28 35 1010.1 0 46.6 42.5 84.4 223.6 250.5 871.0
07/05 13:40 31.6 71 23.47 25.7 26 32 1010.1 0 49.6 45.1 90.9 240.8 271.7 944.7
07/05 13:30 31.5 68 22.36 24.9 30 39 1010.3 0 47.3 43.0 85.8 227.2 255.0 886.6
07/05 13:20 31 68 21.77 24.4 30 33 1010.5 0 46.2 42.2 83.6 221.4 247.7 861.4
07/05 13:10 31.6 66 21.82 24.5 33 35 1010.5 0 46.2 42.0 83.2 220.3 246.5 857.2
07/05 13:00 31.3 68 22.12 24.7 30 37 1010.7 0 46.8 42.7 84.9 224.9 252.1 876.5
07/05 12:50 31.8 69 23.05 25.4 32 33 1010.8 0 48.7 44.2 88.7 235.0 264.6 920.1
07/05 12:40 31.5 66 21.7 24.4 32 35 1010.9 0 45.9 41.8 82.8 219.2 245.1 852.3
07/05 12:30 31.8 68 22.72 25.2 30 39 1011 0 48.0 43.6 87.2 230.9 259.6 902.6
07/05 12:20 30.8 70 22.17 24.7 26 33 1011.1 0 47.0 43.1 85.8 227.1 254.6 885.2
07/05 12:10 32.2 70 23.89 26 24 28 1011.2 0 50.4 45.6 92.3 244.4 276.2 960.6
07/05 12:00 31.8 69 23.05 25.6 30 37 1011.4 0 48.7 44.2 88.8 235.1 264.7 920.4
07/05 11:50 31.8 69 23.05 25.6 24 32 1011.5 0 48.7 44.2 88.8 235.1 264.7 920.5
07/05 11:40 31.3 68 22.12 24.7 32 35 1011.6 0 46.8 42.7 85.0 225.1 252.2 877.0
07/05 11:30 31.3 70 22.77 25.2 30 37 1011.7 0 48.2 44.0 88.0 233.2 262.2 911.7
07/05 11:20 30.7 70 22.05 24.6 32 35 1011.8 0 46.8 42.9 85.3 226.0 253.2 880.4
07/05 11:10 31.6 69 22.81 25.2 24 32 1012 0 48.2 43.9 87.9 232.8 261.8 910.4
07/05 11:00 31.6 71 23.47 25.7 28 37 1012.1 0 49.6 45.2 91.1 241.2 272.0 945.9
07/05 10:50 31.1 71 22.85 25.4 26 33 1012.3 0 48.4 44.2 88.7 234.9 264.2 918.7
07/05 10:40 30.5 72 22.44 24.9 28 32 1012.4 0 47.6 43.8 87.5 231.6 260.0 904.0
07/05 10:30 30.8 72 22.8 25.2 30 37 1012.5 0 48.3 44.3 88.8 235.3 264.5 919.8
07/05 10:20 30.7 71 22.36 24.8 32 39 1012.5 0 47.4 43.5 86.9 230.0 258.1 897.3
07/05 10:10 30.6 70 21.93 24.5 32 35 1012.5 0 46.5 42.8 84.9 224.9 251.8 875.6
07/05 10:00 29.2 75 21.78 24.3 30 39 1012.5 0 46.4 43.2 85.8 227.2 254.3 883.8
07/05 09:50 30 75 22.75 25.1 26 30 1012.6 0 48.3 44.7 89.5 237.1 266.6 927.0
07/05 09:40 30.8 71 22.48 24.9 30 35 1012.5 0 47.7 43.7 87.3 231.2 259.6 902.6
07/05 09:30 30.3 73 22.5 24.9 28 37 1012.5 0 47.8 44.0 88.0 233.0 261.6 909.7
07/05 09:20 29.6 72 21.37 24.2 30 33 1012.5 0 45.5 42.2 83.4 220.9 246.6 857.2
07/05 09:10 29.7 73 21.78 24.3 32 33 1012.3 0 46.3 42.9 85.2 225.7 252.5 877.9
07/05 09:00 29.9 72 21.72 24.3 30 37 1012.3 0 46.2 42.7 84.7 224.3 250.9 872.4
07/05 08:50 29.5 75 22.14 24.6 32 35 1012.2 0 47.1 43.7 87.2 230.8 258.8 899.6
07/05 08:40 29.2 74 21.49 24.1 32 35 1012.1 0 45.8 42.6 84.4 223.5 249.7 868.0
07/05 08:30 29.2 75 21.78 24.3 32 39 1012 0 46.4 43.2 85.8 227.1 254.2 883.5
07/05 08:20 29.1 74 21.37 24 30 33 1011.9 0 45.5 42.5 83.9 222.2 248.1 862.6
07/05 08:10 28.5 75 20.96 23.6 32 35 1011.8 0 44.7 42.0 82.7 218.8 243.8 847.3
07/05 08:00 28.4 77 21.41 24 32 41 1011.7 0 45.7 42.9 84.9 224.8 251.1 872.7
07/05 07:50 27.9 78 21.1 23.7 33 39 1011.7 0 45.1 42.5 84.0 222.3 247.9 861.6
07/05 07:40 27.9 78 21.1 23.7 32 35 1011.6 0 45.1 42.5 84.0 222.3 247.9 861.6
07/05 07:30 27.8 79 21.25 23.8 32 39 1011.4 0 45.4 42.9 84.8 224.5 250.5 870.7
07/05 07:20 27.6 81 21.55 24 30 33 1011.3 0 46.1 43.6 86.5 228.9 255.9 889.4
07/05 07:10 27.5 80 21.17 23.7 32 35 1011.2 0 45.3 42.9 84.7 224.3 250.3 869.7
07/05 07:00 27.3 81 21.2 23.7 32 41 1011.1 0 45.4 43.0 85.1 225.3 251.4 873.6
07/05 06:50 27.1 80 20.7 23.3 32 35 1011 0 44.4 42.2 82.9 219.5 244.2 848.6
07/05 06:40 27.2 80 20.82 23.4 32 37 1010.8 0 44.6 42.3 83.4 220.7 245.7 853.9
07/05 06:30 27.2 80 20.82 23.4 32 43 1010.7 0 44.6 42.3 83.4 220.7 245.7 853.8
07/05 06:20 27.2 79 20.56 23.2 33 39 1010.7 0 44.0 41.8 82.1 217.3 241.7 839.7
07/05 06:10 27.3 79 20.67 23.3 33 39 1010.7 0 44.3 42.0 82.5 218.5 243.0 844.6
07/05 06:00 27.5 81 21.43 23.9 30 37 1010.6 0 45.9 43.3 86.0 227.6 254.3 883.6
07/05 05:50 27.4 80 21.05 23.6 30 35 1010.5 0 45.1 42.7 84.2 223.0 248.6 863.9
07/05 05:40 27.5 80 21.17 23.7 26 32 1010.5 0 45.3 42.8 84.7 224.2 250.2 869.3
07/05 05:30 27.4 81 21.31 23.8 28 35 1010.5 0 45.6 43.2 85.5 226.3 252.7 878.1
07/05 05:20 27.3 81 21.2 23.7 30 35 1010.5 0 45.4 43.0 85.1 225.2 251.3 873.3
07/05 05:10 27.5 81 21.43 23.9 30 35 1010.4 0 45.9 43.3 85.9 227.5 254.2 883.5
07/05 05:00 27.4 80 21.05 23.6 32 39 1010.3 0 45.1 42.6 84.2 222.9 248.6 863.8
07/05 04:50 27.3 79 20.67 23.3 30 33 1010.3 0 44.3 42.0 82.5 218.4 243.0 844.3
07/05 04:40 27.4 80 21.05 23.6 32 35 1010.3 0 45.1 42.6 84.2 222.9 248.6 863.8
07/05 04:30 27.3 81 21.2 23.7 30 37 1010.2 0 45.4 43.0 85.0 225.1 251.3 873.1
07/05 04:20 27.2 81 21.08 23.7 33 37 1010.2 0 45.2 42.8 84.6 223.9 249.7 867.7
07/05 04:10 27.2 81 21.08 23.7 28 32 1010.2 0 45.2 42.8 84.6 223.9 249.7 867.7
07/05 04:00 27.2 81 21.08 23.7 30 35 1010.2 0 45.2 42.8 84.6 223.9 249.7 867.7
07/05 03:50 27.2 80 20.82 23.4 32 37 1010.2 0 44.6 42.3 83.3 220.6 245.6 853.5
07/05 03:40 27.3 79 20.67 23.3 33 37 1010.2 0 44.3 42.0 82.5 218.4 243.0 844.3
07/05 03:30 27.2 80 20.82 23.4 30 35 1010.4 0 44.6 42.3 83.3 220.6 245.7 853.7
07/05 03:20 27.2 81 21.08 23.7 28 35 1010.4 0 45.2 42.8 84.6 223.9 249.7 867.8
07/05 03:10 27.2 81 21.08 23.7 30 32 1010.4 0 45.2 42.8 84.6 223.9 249.7 867.8
07/05 03:00 27 80 20.59 23.3 28 35 1010.5 0 44.1 42.0 82.5 218.3 242.7 843.5
07/05 02:50 27.1 81 20.96 23.6 33 37 1010.6 0 44.9 42.6 84.1 222.7 248.2 862.5
07/05 02:40 27.3 82 21.46 24 26 30 1010.6 0 45.9 43.5 86.3 228.5 255.4 887.6
07/05 02:30 27.3 81 21.2 23.7 33 43 1010.7 0 45.4 43.0 85.1 225.2 251.3 873.4
07/05 02:20 27.2 82 21.34 23.9 32 39 1010.7 0 45.7 43.3 85.9 227.3 253.9 882.2
07/05 02:10 27.3 82 21.46 24 33 35 1010.9 0 45.9 43.5 86.3 228.6 255.5 887.8
07/05 02:00 27.2 80 20.82 23.4 33 41 1011 0 44.6 42.3 83.4 220.7 245.8 854.0
07/05 01:50 27 82 21.1 23.7 33 37 1011 0 45.2 43.0 84.9 224.9 250.8 871.6
07/05 01:40 27.2 84 21.86 24.3 30 35 1011 0 46.8 44.4 88.4 234.1 262.2 911.2
07/05 01:30 27 83 21.36 23.9 35 44 1011 0 45.8 43.5 86.2 228.2 254.9 885.9
07/05 01:20 27.2 85 22.12 24.5 30 33 1011.2 0 47.4 44.9 89.7 237.6 266.4 925.8
07/05 01:10 27.3 82 21.46 24 32 35 1011.2 0 45.9 43.5 86.4 228.6 255.5 888.0

Last Refresh: 07-May-2026 17:46:29

Bureau of Meteorology